createdAt,value
2023-04-11T00:04:26.000Z,3.40
2023-04-11T00:10:19.720Z,3.60
2023-04-11T00:16:13.200Z,4.40
2023-04-11T00:22:09.368Z,3.83
2023-04-11T00:28:02.393Z,4.10
2023-04-11T00:33:55.416Z,3.53
2023-04-11T00:39:53.048Z,3.27
2023-04-11T00:45:46.991Z,3.13
2023-04-11T00:51:40.130Z,3.30
2023-04-11T00:57:35.573Z,4.00
2023-04-11T01:03:30.583Z,3.87
2023-04-11T01:09:26.800Z,4.53
2023-04-11T01:15:22.500Z,4.93
2023-04-11T01:21:17.697Z,4.10
2023-04-11T01:27:12.089Z,3.50
2023-04-11T01:33:05.839Z,4.03
2023-04-11T01:38:59.574Z,3.70
2023-04-11T01:44:56.016Z,4.27
2023-04-11T01:50:49.015Z,4.97
2023-04-11T01:56:42.475Z,4.17
2023-04-11T02:02:36.961Z,3.43
2023-04-11T02:08:30.715Z,5.60
2023-04-11T02:14:24.257Z,3.30
2023-04-11T02:20:19.152Z,3.17
2023-04-11T02:26:12.595Z,2.67
2023-04-11T02:32:06.157Z,2.00
2023-04-11T02:38:00.971Z,4.80
2023-04-11T02:43:54.674Z,1.83
2023-04-11T02:49:48.325Z,2.40
2023-04-11T02:55:48.551Z,2.00
2023-04-11T03:01:42.722Z,2.00
2023-04-11T03:07:38.822Z,2.43
2023-04-11T03:13:34.074Z,2.80
2023-04-11T03:19:27.206Z,2.20
2023-04-11T03:25:21.708Z,2.40
2023-04-11T03:31:19.362Z,1.47
2023-04-11T03:37:14.180Z,1.30
2023-04-11T03:43:08.434Z,1.43
2023-04-11T03:49:04.920Z,1.47
2023-04-11T03:54:58.684Z,2.03
2023-04-11T04:00:54.303Z,3.10
2023-04-11T04:06:49.928Z,1.37
2023-04-11T04:12:44.462Z,1.50
2023-04-11T04:18:41.755Z,1.30
2023-04-11T04:24:39.863Z,1.40
2023-04-11T04:30:58.363Z,3.83
2023-04-11T04:36:59.534Z,1.20
2023-04-11T04:43:04.315Z,1.63
2023-04-11T04:49:17.685Z,1.00
2023-04-11T04:55:10.858Z,1.20
2023-04-11T05:01:06.885Z,0.80
2023-04-11T05:07:00.997Z,2.10
2023-04-11T05:12:56.834Z,3.43
2023-04-11T05:18:51.391Z,1.57
2023-04-11T05:24:44.492Z,3.57
2023-04-11T05:30:40.466Z,1.83
2023-04-11T05:36:35.294Z,5.23
2023-04-11T05:42:28.783Z,3.37
2023-04-11T05:48:23.340Z,1.97
2023-04-11T05:54:33.398Z,1.27
2023-04-11T06:00:31.173Z,4.10
2023-04-11T06:06:25.246Z,2.23
2023-04-11T06:12:20.098Z,4.13
2023-04-11T06:18:13.522Z,2.00
2023-04-11T06:24:09.994Z,5.60
2023-04-11T06:30:04.457Z,2.23
2023-04-11T06:35:58.115Z,2.43
2023-04-11T06:41:52.174Z,2.47
2023-04-11T06:47:53.180Z,3.53
2023-04-11T06:53:46.407Z,3.33
2023-04-11T06:59:39.490Z,3.50
2023-04-11T07:05:34.310Z,3.20
2023-04-11T07:11:27.389Z,2.40
2023-04-11T07:17:20.854Z,5.00
2023-04-11T07:23:15.457Z,3.10
2023-04-11T07:29:11.010Z,4.27
2023-04-11T07:35:05.853Z,2.30
2023-04-11T07:41:02.901Z,0.97
2023-04-11T07:46:56.443Z,0.70
2023-04-11T07:52:49.914Z,0.87
2023-04-11T07:58:44.898Z,1.30
2023-04-11T08:04:38.701Z,0.70
2023-04-11T08:10:31.991Z,1.50
2023-04-11T08:16:26.829Z,1.63
2023-04-11T08:22:20.055Z,1.30
2023-04-11T08:28:13.056Z,1.87
2023-04-11T08:34:08.139Z,2.60
2023-04-11T08:40:01.938Z,1.70
2023-04-11T08:45:55.232Z,1.90
2023-04-11T08:51:54.902Z,2.00
2023-04-11T08:57:48.361Z,1.50
2023-04-11T09:03:52.745Z,2.53
2023-04-11T09:09:47.273Z,6.07
2023-04-11T09:15:40.676Z,3.57
2023-04-11T09:21:52.319Z,2.63
2023-04-11T09:27:47.434Z,4.03
2023-04-11T09:33:41.162Z,6.40
2023-04-11T09:39:34.666Z,7.07
2023-04-11T09:45:32.160Z,7.53
2023-04-11T09:51:36.464Z,6.50
2023-04-11T09:57:33.771Z,8.30
2023-04-11T10:03:30.361Z,5.83
2023-04-11T10:09:23.845Z,5.13
2023-04-11T10:15:18.230Z,6.40
2023-04-11T10:21:40.886Z,3.63
2023-04-11T10:27:50.427Z,5.27
2023-04-11T10:34:13.307Z,6.60
2023-04-11T10:40:12.422Z,2.67
2023-04-11T10:46:19.358Z,1.70
2023-04-11T10:52:21.900Z,1.83
2023-04-11T10:58:19.500Z,1.63
2023-04-11T11:04:14.401Z,3.37
2023-04-11T11:10:09.066Z,0.80
2023-04-11T11:16:03.965Z,1.07
2023-04-11T11:21:59.704Z,1.47
2023-04-11T11:27:59.960Z,0.90
2023-04-11T11:33:58.318Z,2.27
2023-04-11T11:39:58.596Z,1.10
2023-04-11T11:46:10.298Z,1.53
2023-04-11T11:52:05.243Z,2.80
2023-04-11T11:58:02.654Z,1.60
2023-04-11T12:03:56.463Z,1.90
2023-04-11T12:09:57.019Z,2.87
2023-04-11T12:15:56.073Z,2.40
2023-04-11T12:21:49.631Z,1.53
2023-04-11T12:27:47.135Z,2.33
2023-04-11T12:33:40.914Z,1.80
2023-04-11T12:39:34.013Z,4.70
2023-04-11T12:45:29.021Z,3.23
2023-04-11T12:51:22.552Z,1.47
2023-04-11T12:57:16.056Z,2.97
2023-04-11T13:03:11.049Z,1.23
2023-04-11T13:09:07.552Z,1.03
2023-04-11T13:15:01.690Z,1.37
2023-04-11T13:20:56.337Z,1.93
2023-04-11T13:26:49.917Z,1.47
2023-04-11T13:32:43.044Z,2.70
2023-04-11T13:38:37.663Z,2.50
2023-04-11T13:44:31.165Z,7.27
2023-04-11T13:50:24.620Z,5.30
2023-04-11T13:56:20.932Z,2.77
2023-04-11T14:02:14.516Z,2.97
2023-04-11T14:08:08.186Z,5.20
2023-04-11T14:14:03.072Z,3.27
2023-04-11T14:19:56.620Z,3.50
2023-04-11T14:25:49.783Z,2.20
2023-04-11T14:31:45.176Z,2.57
2023-04-11T14:37:38.370Z,2.77
2023-04-11T14:43:31.876Z,3.90
2023-04-11T14:49:26.871Z,3.67
2023-04-11T14:55:20.794Z,7.60
2023-04-11T15:01:14.321Z,6.73
2023-04-11T15:07:08.842Z,5.53
2023-04-11T15:13:02.482Z,7.50
2023-04-11T15:18:56.047Z,5.97
2023-04-11T15:24:51.241Z,5.10
2023-04-11T15:30:48.830Z,3.63
2023-04-11T15:36:42.986Z,3.83
2023-04-11T15:42:38.036Z,2.80
2023-04-11T15:48:31.231Z,3.40
2023-04-11T15:54:24.751Z,4.10
2023-04-11T16:00:22.705Z,2.97
2023-04-11T16:06:18.311Z,5.80
2023-04-11T16:12:11.855Z,6.07
2023-04-11T16:18:07.261Z,3.57
2023-04-11T16:24:00.900Z,7.10
2023-04-11T16:30:00.117Z,6.47
2023-04-11T16:35:54.896Z,4.70
2023-04-11T16:41:47.930Z,9.87
2023-04-11T16:47:41.537Z,5.33
2023-04-11T16:53:36.745Z,1.60
2023-04-11T16:59:30.359Z,2.47
2023-04-11T17:05:24.260Z,2.97
2023-04-11T17:11:19.202Z,4.87
2023-04-11T17:17:12.306Z,3.20
2023-04-11T17:23:05.408Z,6.00
2023-04-11T17:28:59.981Z,2.60
2023-04-11T17:34:53.545Z,4.63
2023-04-11T17:40:47.298Z,4.47
2023-04-11T17:46:41.893Z,6.33
2023-04-11T17:52:35.504Z,3.37
2023-04-11T17:58:28.955Z,5.20
2023-04-11T18:04:23.770Z,7.70
2023-04-11T18:10:19.519Z,4.27
2023-04-11T18:16:12.830Z,4.90
2023-04-11T18:22:07.759Z,6.20
2023-04-11T18:28:00.799Z,4.80
2023-04-11T18:33:54.504Z,5.47
2023-04-11T18:39:50.134Z,6.97
2023-04-11T18:45:44.983Z,6.33
2023-04-11T18:51:39.397Z,3.73
2023-04-11T18:57:35.908Z,4.80
2023-04-11T19:03:31.551Z,5.40
2023-04-11T19:09:25.185Z,5.07
2023-04-11T19:15:20.171Z,3.33
2023-04-11T19:21:13.654Z,7.30
2023-04-11T19:27:08.488Z,5.17
2023-04-11T19:33:03.757Z,5.17
2023-04-11T19:38:57.290Z,4.80
2023-04-11T19:44:50.799Z,4.27
2023-04-11T19:50:45.851Z,10.00
2023-04-11T19:56:41.382Z,6.03
2023-04-11T20:02:35.226Z,5.20
2023-04-11T20:08:32.803Z,4.73
2023-04-11T20:14:26.294Z,4.73
2023-04-11T20:20:20.759Z,5.53
2023-04-11T20:26:15.234Z,5.60
2023-04-11T20:32:08.815Z,6.37
2023-04-11T20:38:02.565Z,7.43
2023-04-11T20:43:57.507Z,6.43
2023-04-11T20:49:55.582Z,4.13
2023-04-11T20:55:48.742Z,6.60
2023-04-11T21:01:44.525Z,4.80
2023-04-11T21:07:37.954Z,5.00
2023-04-11T21:13:31.508Z,6.30
2023-04-11T21:19:26.435Z,4.33
2023-04-11T21:25:20.099Z,6.37
2023-04-11T21:31:13.635Z,6.37
2023-04-11T21:37:08.587Z,5.40
2023-04-11T21:43:01.743Z,5.80
2023-04-11T21:48:54.856Z,6.73
2023-04-11T21:54:50.352Z,6.10
2023-04-11T22:00:43.814Z,7.60
2023-04-11T22:06:38.200Z,5.30
2023-04-11T22:12:33.044Z,9.83
2023-04-11T22:18:27.496Z,4.80
2023-04-11T22:24:23.182Z,5.90
2023-04-11T22:30:17.707Z,5.63
2023-04-11T22:36:12.108Z,6.90
2023-04-11T22:42:07.125Z,6.17
2023-04-11T22:48:02.238Z,5.60
2023-04-11T22:53:55.609Z,6.07
2023-04-11T22:59:49.562Z,4.80
2023-04-11T23:05:44.440Z,8.10
2023-04-11T23:11:38.128Z,8.10
2023-04-11T23:17:31.669Z,7.13
2023-04-11T23:23:26.614Z,7.30
2023-04-11T23:29:20.297Z,6.07
2023-04-11T23:35:13.767Z,6.60
2023-04-11T23:41:09.210Z,6.60
2023-04-11T23:47:02.754Z,7.73
2023-04-11T23:52:55.849Z,7.57
2023-04-11T23:58:50.895Z,3.73
